Time;durP1;ratioP1;P1;durP2;ratioP2;P2;SDS_P1;SDS_P2;PMS_P1;PMS_P2;Temp;Humidity;BMP_temperature;BMP_pressure;BME280_temperature;BME280_humidity;BME280_pressure;Samples;Min_cycle;Max_cycle;Signal;HPM_P1;HPM_P2
2021/12/25 00:00:12;;;;;;;53.10;33.00;;;;;;;-0.88;78.31;93106.63;5086526;28;20034;-60
2021/12/25 00:02:38;;;;;;;58.40;35.58;;;;;;;-1.15;79.26;93115.31;5087209;28;20039;-60
2021/12/25 00:05:05;;;;;;;54.15;31.15;;;;;;;-1.03;78.69;93108.75;5088777;28;20500;-60
2021/12/25 00:07:31;;;;;;;62.38;32.63;;;;;;;-0.99;78.28;93109.25;5089532;28;20497;-61
2021/12/25 00:09:57;;;;;;;54.72;31.75;;;;;;;-0.96;77.40;93111.00;5090022;28;20024;-61
2021/12/25 00:12:24;;;;;;;45.90;26.63;;;;;;;-1.01;78.07;93098.16;5090041;28;20055;-61
2021/12/25 00:14:49;;;;;;;64.18;36.45;;;;;;;-1.10;79.88;93117.31;5089892;28;20023;-63
2021/12/25 00:17:15;;;;;;;45.88;27.45;;;;;;;-1.09;79.21;93105.25;5091718;28;20024;-63
2021/12/25 00:19:41;;;;;;;44.72;25.33;;;;;;;-1.21;79.79;93109.13;5089664;28;20020;-63
2021/12/25 00:22:06;;;;;;;36.08;22.15;;;;;;;-1.26;81.58;93099.72;5090079;28;20069;-61
2021/12/25 00:24:32;;;;;;;52.00;28.20;;;;;;;-1.16;81.28;93111.09;5090309;28;20020;-61
2021/12/25 00:27:08;;;;;;;46.63;27.77;;;;;;;-1.13;80.08;93119.03;5090197;28;20027;-62
2021/12/25 00:34:47;;;;;;;55.90;30.52;;;;;;;-1.00;78.22;93119.38;5090477;28;20055;-61
2021/12/25 00:37:13;;;;;;;93.63;46.78;;;;;;;-1.38;80.13;93119.81;5090212;28;20024;-61
2021/12/25 00:39:39;;;;;;;74.10;41.28;;;;;;;-1.30;80.76;93114.72;5090170;28;20028;-61
2021/12/25 00:42:05;;;;;;;57.08;34.38;;;;;;;-1.12;79.55;93130.59;5090021;28;20012;-61
2021/12/25 00:44:32;;;;;;;60.70;33.55;;;;;;;-1.01;78.83;93141.50;5090410;28;20070;-61
2021/12/25 00:46:57;;;;;;;59.20;35.25;;;;;;;-1.20;79.42;93129.53;5090393;28;20088;-62
2021/12/25 00:49:24;;;;;;;37.50;22.83;;;;;;;-1.08;79.80;93114.84;5090076;28;20114;-61
2021/12/25 00:51:50;;;;;;;35.47;22.10;;;;;;;-0.92;80.85;93109.56;5102266;28;20135;-60
2021/12/25 00:54:16;;;;;;;59.72;36.25;;;;;;;-0.94;79.40;93125.56;5110307;28;20015;-60
2021/12/25 00:56:42;;;;;;;27.13;18.02;;;;;;;-1.16;80.12;93111.09;5109986;28;20051;-60
2021/12/25 00:59:07;;;;;;;41.08;24.48;;;;;;;-1.04;nan;93126.22;5091854;28;20028;-60
2021/12/25 01:01:33;;;;;;;36.47;24.65;;;;;;;-1.17;80.88;93128.59;5089821;28;20077;-60
2021/12/25 01:03:58;;;;;;;35.22;23.88;;;;;;;-1.09;81.31;93126.94;5089956;28;20032;-60
2021/12/25 01:06:24;;;;;;;40.60;26.35;;;;;;;-1.04;82.34;93126.22;5089831;28;20024;-60
2021/12/25 01:08:50;;;;;;;26.40;15.73;;;;;;;-1.46;83.27;93126.13;5090141;28;20020;-60
2021/12/25 01:11:15;;;;;;;13.05;8.55;;;;;;;-1.33;86.71;93121.81;5071702;28;20436;-59
2021/12/25 01:13:57;;;;;;;10.88;7.43;;;;;;;-1.19;86.85;93096.56;5090118;28;20453;-60
2021/12/25 01:31:56;;;;;;;21.88;13.45;;;;;;;-1.36;84.21;93111.94;5092427;28;20031;-60
2021/12/25 01:47:44;;;;;;;43.58;21.70;;;;;;;-1.08;85.50;93080.38;5113401;28;20404;-62
2021/12/25 01:47:51;;;;;;;40.70;23.50;;;;;;;-1.37;83.04;93093.47;5112029;28;20030;-61
2021/12/25 01:50:23;;;;;;;46.28;24.67;;;;;;;-1.18;82.95;93095.34;5112036;28;20023;-61
2021/12/25 01:52:49;;;;;;;37.42;20.38;;;;;;;-1.54;82.58;93099.47;5111489;28;20051;-61
2021/12/25 01:55:25;;;;;;;40.72;24.10;;;;;;;-1.55;83.33;93116.22;5111787;28;20036;-61
2021/12/25 01:57:52;;;;;;;56.97;30.35;;;;;;;-1.28;82.55;93101.44;5103816;28;20109;-61
2021/12/25 02:00:35;;;;;;;32.60;19.63;;;;;;;-1.38;83.36;93105.50;5091740;28;20047;-61
2021/12/25 02:03:03;;;;;;;47.28;24.23;;;;;;;-1.60;83.43;93103.38;5093182;28;20417;-67
2021/12/25 02:05:28;;;;;;;58.22;28.73;;;;;;;-1.75;83.25;93110.84;5093028;28;20027;-67
2021/12/25 02:07:54;;;;;;;31.55;17.65;;;;;;;-1.69;83.67;93117.81;5092552;28;20688;-67
2021/12/25 02:10:20;;;;;;;23.38;14.40;;;;;;;-1.58;84.17;93107.09;5106051;28;20034;-67
2021/12/25 02:12:47;;;;;;;43.58;22.70;;;;;;;-1.61;83.84;93108.06;5100061;28;20068;-67
2021/12/25 02:15:16;;;;;;;51.45;24.50;;;;;;;-1.49;83.21;93116.28;5102016;28;20031;-66
2021/12/25 02:20:30;;;;;;;69.20;32.08;;;;;;;-1.53;82.70;93119.19;5093433;28;20119;-65
2021/12/25 02:23:02;;;;;;;86.65;37.67;;;;;;;-1.52;82.27;93107.16;5092658;28;20473;-62
2021/12/25 02:25:30;;;;;;;72.90;32.97;;;;;;;-1.35;81.32;93104.56;5100439;28;20058;-61
2021/12/25 02:27:56;;;;;;;60.85;30.52;;;;;;;-1.65;82.54;93107.53;5111028;28;20063;-63
2021/12/25 02:30:21;;;;;;;53.40;27.23;;;;;;;-1.54;82.22;93107.59;5112893;28;20108;-61
2021/12/25 02:32:47;;;;;;;58.47;25.00;;;;;;;-1.61;81.17;93121.59;5109237;28;20500;-65
2021/12/25 02:35:15;;;;;;;51.67;25.10;;;;;;;-1.47;81.23;93116.53;5100896;28;20413;-64
2021/12/25 02:37:41;;;;;;;62.07;28.90;;;;;;;-1.34;80.45;93130.44;5101196;28;20024;-61
2021/12/25 02:40:08;;;;;;;59.10;26.58;;;;;;;-1.62;80.64;93139.03;5103923;28;20892;-61
2021/12/25 02:42:35;;;;;;;62.40;28.95;;;;;;;-1.69;80.98;93150.28;5098473;28;20012;-61
2021/12/25 02:45:05;;;;;;;31.85;17.30;;;;;;;-1.48;81.04;93147.53;5101612;28;20035;-61
2021/12/25 02:47:31;;;;;;;42.50;21.83;;;;;;;-1.46;81.36;93145.09;5094274;28;20020;-61
2021/12/25 02:49:57;;;;;;;45.22;22.52;;;;;;;-1.42;80.75;93129.34;5091224;28;20503;-61
2021/12/25 02:52:23;;;;;;;33.08;19.05;;;;;;;-1.43;80.98;93136.00;5090916;28;20048;-62
2021/12/25 02:54:49;;;;;;;56.63;29.08;;;;;;;-1.63;80.54;93137.56;5091056;28;20515;-62
2021/12/25 02:57:15;;;;;;;50.83;26.98;;;;;;;-2.27;81.80;93074.91;5090847;28;20062;-61
2021/12/25 02:59:41;;;;;;;45.33;24.73;;;;;;;-1.93;81.98;93133.56;5091237;28;20651;-62
2021/12/25 03:02:12;;;;;;;43.92;22.98;;;;;;;-1.72;81.79;93131.56;5091392;28;20035;-61
2021/12/25 03:04:39;;;;;;;49.85;25.63;;;;;;;-1.86;81.82;93125.03;5088416;28;20020;-61
2021/12/25 03:07:05;;;;;;;57.55;25.95;;;;;;;-1.79;82.33;93127.31;5091010;28;20039;-61
2021/12/25 03:09:31;;;;;;;41.05;23.65;;;;;;;-1.62;82.27;93111.97;5091236;28;20023;-61
2021/12/25 03:11:57;;;;;;;56.88;26.92;;;;;;;-1.63;81.24;93117.88;5091316;28;20025;-61
2021/12/25 03:14:35;;;;;;;67.72;31.85;;;;;;;-1.60;80.50;93133.13;5091411;28;20118;-61
2021/12/25 03:17:01;;;;;;;73.10;38.33;;;;;;;-1.54;80.35;93123.84;5091488;28;20089;-61
2021/12/25 03:19:32;;;;;;;74.60;41.15;;;;;;;-1.48;79.83;93128.56;5091557;28;20024;-61
2021/12/25 03:21:59;;;;;;;77.32;39.15;;;;;;;-1.70;80.07;93139.94;5091170;28;20504;-61
2021/12/25 03:24:26;;;;;;;72.93;37.72;;;;;;;-1.59;79.72;93142.75;5091153;28;20085;-58
2021/12/25 03:26:55;;;;;;;69.38;35.55;;;;;;;-1.80;80.57;93133.22;5091095;28;20028;-59
2021/12/25 03:29:21;;;;;;;69.43;33.70;;;;;;;-1.92;81.29;93139.72;5072884;28;20513;-59
2021/12/25 03:31:47;;;;;;;56.85;34.22;;;;;;;-1.80;81.64;93142.03;5090726;28;20089;-59
2021/12/25 03:34:12;;;;;;;70.85;35.67;;;;;;;-1.67;81.45;93147.84;5090969;28;20102;-59
2021/12/25 03:36:38;;;;;;;61.33;32.40;;;;;;;-1.84;81.12;93140.78;5090914;28;20459;-59
2021/12/25 03:39:06;;;;;;;67.55;36.20;;;;;;;-1.72;81.61;93129.59;5090784;28;20020;-59
2021/12/25 03:41:31;;;;;;;59.08;30.13;;;;;;;-1.58;81.27;93130.69;5090946;28;20107;-57
2021/12/25 03:43:57;;;;;;;56.55;31.02;;;;;;;-1.49;80.49;93127.09;5090755;28;20115;-57
2021/12/25 03:46:23;;;;;;;56.72;30.70;;;;;;;-1.38;79.14;93119.81;5090830;28;20040;-58
2021/12/25 03:59:35;;;;;;;45.38;23.58;;;;;;;-1.58;80.26;93125.28;5090985;28;20116;-60
2021/12/25 04:02:07;;;;;;;72.47;39.22;;;;;;;-1.90;79.73;93124.50;5090647;28;20103;-61
2021/12/25 04:04:36;;;;;;;77.18;43.50;;;;;;;-2.06;81.01;93135.16;5090589;28;20081;-59
2021/12/25 04:07:07;;;;;;;;;;;;;;;-1.87;81.17;93139.78;5091102;28;20031;-57
2021/12/25 04:09:34;;;;;;;49.30;27.10;;;;;;;-1.94;80.14;93140.19;5090519;28;19923;-57
2021/12/25 04:12:03;;;;;;;46.20;25.52;;;;;;;-1.77;79.34;93140.34;5090365;28;20489;-59
2021/12/25 04:14:29;;;;;;;42.20;23.92;;;;;;;-1.72;79.02;93145.09;5090428;28;20489;-59
2021/12/25 04:16:54;;;;;;;46.45;25.27;;;;;;;-1.65;79.65;93147.38;5090337;28;20032;-59
2021/12/25 04:19:20;;;;;;;36.75;21.17;;;;;;;-1.63;79.09;93140.28;5091658;28;20016;-59
2021/12/25 04:21:55;;;;;;;38.13;21.52;;;;;;;-1.66;78.15;93143.16;5110924;28;20076;-58
2021/12/25 04:24:21;;;;;;;48.25;25.17;;;;;;;-1.57;78.53;93143.78;5110734;28;20027;-59
2021/12/25 04:26:48;;;;;;;63.17;32.30;;;;;;;-1.48;77.75;93142.13;5110604;28;20024;-64
2021/12/25 05:04:03;;;;;;;72.85;36.33;;;;;;;-1.67;80.05;93176.88;5094333;28;20558;-62
2021/12/25 05:06:28;;;;;;;71.97;36.65;;;;;;;-1.56;79.40;93179.72;5094202;28;20097;-62
2021/12/25 05:08:54;;;;;;;96.03;50.47;;;;;;;-1.88;80.56;93170.75;5093396;28;20074;-59
2021/12/25 05:11:21;;;;;;;40.95;21.92;;;;;;;-1.92;83.17;93167.50;5093230;28;20023;-60
2021/12/25 05:13:48;;;;;;;73.85;38.20;;;;;;;-1.94;84.12;93161.09;5093155;28;20393;-62
2021/12/25 05:16:14;;;;;;;69.18;37.67;;;;;;;-1.76;83.58;93177.03;5093502;28;20107;-62
2021/12/25 05:18:39;;;;;;;80.50;38.10;;;;;;;-1.64;82.55;93175.91;5092350;28;20503;-62
2021/12/25 05:21:06;;;;;;;65.70;34.40;;;;;;;-1.48;81.01;93174.59;5093091;28;20099;-62
2021/12/25 05:23:32;;;;;;;78.20;37.67;;;;;;;-1.74;82.55;93164.53;5093732;28;20028;-62
2021/12/25 05:25:58;;;;;;;64.47;34.78;;;;;;;-1.60;82.83;93165.63;5093430;28;20463;-62
2021/12/25 05:28:26;;;;;;;63.88;35.88;;;;;;;-1.47;82.36;93173.38;5093423;28;20116;-63
2021/12/25 05:30:53;;;;;;;65.93;36.30;;;;;;;-1.49;81.86;93167.72;5092600;28;20035;-61
2021/12/25 05:33:19;;;;;;;59.65;32.67;;;;;;;-1.36;81.59;93171.50;5091484;28;20485;-62
2021/12/25 05:35:45;;;;;;;95.65;48.90;;;;;;;-1.41;80.20;93168.75;5080010;28;20583;-61
2021/12/25 05:38:14;;;;;;;93.35;47.15;;;;;;;-1.32;80.09;93165.91;5112083;28;20102;-62
2021/12/25 05:40:44;;;;;;;63.90;36.20;;;;;;;-1.28;80.04;93178.00;5111860;28;20028;-61
2021/12/25 05:43:10;;;;;;;71.38;38.45;;;;;;;-1.39;80.04;93152.78;5101528;28;20020;-61
2021/12/25 05:45:36;;;;;;;60.63;30.52;;;;;;;-1.26;81.30;93162.00;5092162;28;20115;-61
2021/12/25 05:48:01;;;;;;;55.10;29.80;;;;;;;-1.48;83.15;93169.19;5093068;28;20028;-60
2021/12/25 05:50:27;;;;;;;49.83;28.23;;;;;;;-1.66;84.72;93189.19;5092374;28;20027;-60
2021/12/25 05:52:55;;;;;;;32.58;20.80;;;;;;;-1.63;85.42;93183.56;5091931;28;20028;-60
2021/12/25 05:55:21;;;;;;;40.17;25.93;;;;;;;-1.62;85.79;93187.75;5092911;28;20020;-61
2021/12/25 05:57:47;;;;;;;45.17;26.13;;;;;;;-1.36;85.88;93190.47;5092760;28;21033;-61
2021/12/25 06:00:13;;;;;;;42.22;24.63;;;;;;;-1.13;85.21;93189.47;5092774;28;20059;-61
2021/12/25 06:02:38;;;;;;;76.30;40.78;;;;;;;-1.16;84.56;93189.66;5091315;28;20102;-61
2021/12/25 06:05:06;;;;;;;89.65;47.13;;;;;;;-1.15;83.18;93180.31;5092947;28;20054;-61
2021/12/25 06:07:32;;;;;;;83.75;45.33;;;;;;;-1.07;82.58;93176.69;5092522;28;20031;-61
2021/12/25 06:09:57;;;;;;;81.85;44.00;;;;;;;-0.95;81.88;93178.25;5092855;28;20032;-61
2021/12/25 06:12:24;;;;;;;70.88;39.80;;;;;;;-0.71;80.76;93196.19;5092857;28;20048;-61
2021/12/25 06:14:51;;;;;;;81.88;41.47;;;;;;;-0.67;80.64;93196.69;5092552;28;20024;-61
2021/12/25 06:17:17;;;;;;;85.82;41.63;;;;;;;-0.75;80.67;93188.25;5075165;28;20469;-63
2021/12/25 06:19:42;;;;;;;96.57;46.67;;;;;;;-0.56;80.69;93208.34;5092450;28;20024;-62
2021/12/25 06:22:08;;;;;;;123.20;62.15;;;;;;;-0.60;80.72;93198.94;5092703;28;20024;-61
2021/12/25 06:24:34;;;;;;;146.85;70.03;;;;;;;-0.50;80.67;93195.59;5092581;28;20028;-61
2021/12/25 06:26:59;;;;;;;127.03;65.97;;;;;;;-0.42;80.65;93204.00;5092282;28;20489;-61
2021/12/25 06:29:25;;;;;;;136.68;61.15;;;;;;;-0.32;80.62;93202.56;5092595;28;20027;-62
2021/12/25 06:31:52;;;;;;;106.72;56.05;;;;;;;-0.24;80.00;93198.91;5092119;28;20020;-62
2021/12/25 06:34:18;;;;;;;102.70;56.88;;;;;;;-0.18;80.25;93202.44;5092110;28;20031;-61
2021/12/25 06:36:44;;;;;;;91.57;50.58;;;;;;;-0.06;79.83;93193.09;5091634;28;20031;-60
2021/12/25 06:39:14;;;;;;;94.38;50.30;;;;;;;0.04;79.96;93199.06;5092137;28;20031;-60
2021/12/25 06:41:41;;;;;;;137.05;77.13;;;;;;;-0.09;79.22;93191.34;5092429;28;20016;-62
2021/12/25 06:44:07;;;;;;;125.95;65.30;;;;;;;0.01;78.77;93208.19;5091899;28;20081;-60
2021/12/25 06:46:32;;;;;;;160.93;72.55;;;;;;;-0.54;80.29;93199.75;5091996;28;20342;-59
2021/12/25 06:48:58;;;;;;;152.07;72.35;;;;;;;-0.11;80.67;93222.94;5091423;28;20051;-60
2021/12/25 06:51:23;;;;;;;168.32;66.20;;;;;;;-0.08;80.15;93198.28;5100351;28;20042;-60
2021/12/25 06:53:49;;;;;;;151.43;72.88;;;;;;;0.24;80.28;93219.88;5076896;28;20031;-61
2021/12/25 06:56:15;;;;;;;128.05;65.28;;;;;;;0.41;79.80;93226.13;5095850;28;20115;-60
2021/12/25 06:58:40;;;;;;;112.82;60.15;;;;;;;0.49;79.12;93232.56;5096419;28;20024;-61
2021/12/25 07:01:06;;;;;;;102.90;56.47;;;;;;;0.66;78.35;93238.78;5094356;28;21378;-59
2021/12/25 07:03:31;;;;;;;98.60;52.55;;;;;;;0.71;77.51;93230.63;5095653;28;20085;-59
2021/12/25 07:05:57;;;;;;;96.78;51.10;;;;;;;0.61;77.99;93239.50;5100672;28;20024;-60
2021/12/25 07:08:23;;;;;;;108.15;50.83;;;;;;;0.56;79.94;93232.81;5093879;28;20028;-62
2021/12/25 07:10:49;;;;;;;82.97;42.55;;;;;;;0.70;80.08;93244.72;5098347;28;20090;-56
2021/12/25 07:13:19;;;;;;;99.55;54.17;;;;;;;0.65;79.62;93240.75;5099056;28;20499;-57
2021/12/25 07:15:46;;;;;;;97.00;49.50;;;;;;;0.36;79.51;93202.41;5097097;28;20024;-57
2021/12/25 07:18:12;;;;;;;91.25;49.65;;;;;;;0.62;79.70;93249.16;5073243;28;20024;-58
2021/12/25 07:20:37;;;;;;;90.22;50.47;;;;;;;0.62;79.87;93255.31;5091178;28;20015;-58
2021/12/25 07:23:03;;;;;;;130.35;74.35;;;;;;;0.60;79.95;93260.50;5091343;28;20056;-57
2021/12/25 07:25:30;;;;;;;152.55;88.47;;;;;;;0.74;78.84;93250.66;5098103;28;20093;-55
2021/12/25 07:27:56;;;;;;;150.43;85.40;;;;;;;0.81;77.71;93247.47;5111759;28;20023;-57
2021/12/25 07:30:21;;;;;;;146.07;88.28;;;;;;;0.62;78.76;93260.00;5098512;28;20085;-59
2021/12/25 07:32:47;;;;;;;141.18;79.60;;;;;;;0.54;79.67;93269.88;5090386;28;20161;-58
2021/12/25 07:35:14;;;;;;;138.15;82.38;;;;;;;0.48;79.40;93248.09;5090825;28;20036;-57
2021/12/25 07:37:39;;;;;;;177.65;100.35;;;;;;;0.50;80.08;93258.47;5091271;28;20020;-59
2021/12/25 07:40:08;;;;;;;146.35;83.97;;;;;;;0.70;80.36;93253.63;5092897;28;20489;-59
2021/12/25 07:42:33;;;;;;;129.98;80.43;;;;;;;0.96;78.94;93253.41;5095545;28;20094;-60
2021/12/25 07:45:04;;;;;;;146.35;85.85;;;;;;;1.08;78.17;93249.50;5110693;28;20053;-61
2021/12/25 07:47:32;;;;;;;141.15;83.43;;;;;;;0.97;78.46;93235.16;5099601;28;20031;-59
2021/12/25 07:49:59;;;;;;;148.20;88.63;;;;;;;0.97;79.25;93225.03;5093088;28;20036;-62
2021/12/25 07:52:26;;;;;;;137.65;84.80;;;;;;;1.25;78.47;93250.25;5099406;28;20133;-59
2021/12/25 07:54:51;;;;;;;154.95;92.10;;;;;;;1.35;78.21;93251.50;5094941;28;20456;-60
2021/12/25 07:57:16;;;;;;;147.70;89.63;;;;;;;1.51;77.26;93256.19;5103316;28;20028;-60
2021/12/25 07:59:42;;;;;;;162.20;96.10;;;;;;;1.18;78.20;93231.72;5103110;28;20031;-65
2021/12/25 08:02:08;;;;;;;136.05;81.15;;;;;;;1.40;78.45;93245.31;5110406;28;20106;-62
2021/12/25 08:04:35;;;;;;;153.90;91.82;;;;;;;1.61;78.73;93250.50;5095498;28;20552;-58
2021/12/25 08:07:00;;;;;;;157.18;98.22;;;;;;;1.49;78.09;93247.78;5092187;28;20032;-57
2021/12/25 08:09:30;;;;;;;180.80;105.63;;;;;;;1.59;78.66;93258.41;5091618;28;20032;-58
2021/12/25 08:11:56;;;;;;;171.82;103.30;;;;;;;1.63;79.07;93259.66;5107860;28;20326;-58
2021/12/25 08:14:25;;;;;;;177.23;105.75;;;;;;;1.85;78.25;93258.88;5109780;28;20024;-58
2021/12/25 08:16:54;;;;;;;162.02;100.07;;;;;;;1.96;77.37;93267.03;5109068;28;20456;-59
2021/12/25 08:19:21;;;;;;;147.65;91.50;;;;;;;1.92;77.69;93253.69;5107570;28;20135;-57
2021/12/25 08:21:46;;;;;;;183.80;106.75;;;;;;;1.84;77.90;93260.84;5106609;28;20035;-58
2021/12/25 08:24:12;;;;;;;174.88;109.32;;;;;;;2.07;77.42;93267.75;5101028;28;20110;-59
2021/12/25 08:26:38;;;;;;;157.00;99.20;;;;;;;2.31;77.08;93275.38;5094725;28;20420;-59
2021/12/25 08:29:03;;;;;;;143.27;88.25;;;;;;;2.13;76.27;93263.03;5091893;28;20694;-59
2021/12/25 08:31:29;;;;;;;133.20;82.47;;;;;;;2.27;76.63;93255.84;5084987;28;20016;-59
2021/12/25 08:33:55;;;;;;;133.82;85.25;;;;;;;2.52;76.21;93259.44;5088285;28;20028;-59
2021/12/25 08:36:20;;;;;;;117.78;72.15;;;;;;;2.44;77.06;93267.41;5091616;28;20115;-59
2021/12/25 08:38:46;;;;;;;115.55;69.65;;;;;;;2.80;76.56;93268.25;5109375;28;20059;-59
2021/12/25 08:41:11;;;;;;;85.15;54.72;;;;;;;3.11;75.25;93270.56;5110136;28;20058;-59
2021/12/25 08:43:45;;;;;;;57.53;36.08;;;;;;;3.28;74.40;93273.19;5110166;28;20038;-59
2021/12/25 08:46:18;;;;;;;60.20;34.13;;;;;;;3.43;73.77;93273.59;5103598;28;20023;-59
2021/12/25 08:48:44;;;;;;;57.30;32.13;;;;;;;3.66;72.54;93261.28;5107969;28;20028;-59
2021/12/25 08:51:10;;;;;;;48.13;32.20;;;;;;;3.89;71.35;93262.56;5107032;28;20051;-60
2021/12/25 08:53:36;;;;;;;31.95;19.80;;;;;;;4.03;70.34;93247.06;5104277;28;20028;-59
2021/12/25 08:56:02;;;;;;;22.02;15.38;;;;;;;4.32;69.26;93249.72;5087580;28;20436;-60
2021/12/25 08:58:32;;;;;;;26.30;17.80;;;;;;;4.31;67.90;93240.03;5086744;28;20099;-60
2021/12/25 09:01:01;;;;;;;31.77;19.90;;;;;;;4.17;69.09;93246.66;5087506;28;20028;-59
2021/12/25 09:03:28;;;;;;;46.45;28.08;;;;;;;4.44;68.33;93242.88;5087861;28;20043;-60
2021/12/25 09:05:59;;;;;;;38.63;23.42;;;;;;;3.87;68.35;93218.63;5087782;28;20113;-59
2021/12/25 09:08:25;;;;;;;58.80;34.53;;;;;;;4.18;68.88;93252.88;5087814;28;20089;-60
2021/12/25 09:10:52;;;;;;;38.85;24.35;;;;;;;4.35;67.67;93232.28;5107117;28;20035;-60
2021/12/25 09:13:17;;;;;;;32.70;22.88;;;;;;;4.63;67.94;93233.97;5106985;28;20035;-60
2021/12/25 09:15:43;;;;;;;34.67;22.27;;;;;;;5.16;66.70;93227.53;5106679;28;20503;-59
2021/12/25 09:18:09;;;;;;;25.48;18.05;;;;;;;5.87;63.68;93228.47;5107621;28;20035;-60
2021/12/25 09:20:34;;;;;;;21.35;14.90;;;;;;;5.62;64.58;93227.13;5107545;28;20020;-60
2021/12/25 09:23:00;;;;;;;16.38;12.48;;;;;;;6.30;62.80;93222.75;5099771;28;20059;-59
2021/12/25 09:25:26;;;;;;;14.07;10.38;;;;;;;6.85;60.38;93223.66;5087285;28;20111;-60
2021/12/25 09:27:52;;;;;;;105.65;59.65;;;;;;;7.07;59.52;93228.69;5089743;28;20024;-61
2021/12/25 09:30:19;;;;;;;42.88;30.30;;;;;;;7.22;58.88;93209.66;5087402;28;20480;-59
2021/12/25 09:32:45;;;;;;;42.00;29.50;;;;;;;7.22;58.55;93214.38;5085222;28;20043;-64
2021/12/25 09:35:11;;;;;;;59.38;39.83;;;;;;;7.08;59.39;93197.22;5101883;28;20027;-58
2021/12/25 09:37:36;;;;;;;56.47;34.25;;;;;;;7.02;59.33;93204.13;5107866;28;20032;-57
2021/12/25 09:40:05;;;;;;;55.33;32.72;;;;;;;6.90;59.42;93206.34;5110510;28;20024;-61
2021/12/25 09:42:30;;;;;;;39.05;16.95;;;;;;;6.73;60.19;93198.47;5110821;28;20027;-59
2021/12/25 09:44:56;;;;;;;37.17;22.45;;;;;;;6.87;60.50;93196.41;5110671;28;20037;-59
2021/12/25 09:47:22;;;;;;;32.08;18.58;;;;;;;6.70;60.00;93187.81;5111201;28;20061;-61
2021/12/25 09:49:49;;;;;;;44.70;24.75;;;;;;;6.54;61.09;93188.88;5109405;28;20023;-62
2021/12/25 09:52:14;;;;;;;18.25;13.10;;;;;;;6.53;60.26;93192.88;5109689;28;20049;-57
2021/12/25 09:54:40;;;;;;;26.70;14.25;;;;;;;6.72;60.40;93194.22;5109105;27;20027;-61
2021/12/25 09:57:05;;;;;;;35.33;19.27;;;;;;;6.71;59.31;93203.72;5103515;28;20094;-49
2021/12/25 09:59:31;;;;;;;27.92;17.77;;;;;;;6.59;60.36;93196.25;5089192;28;20057;-53
2021/12/25 10:01:57;;;;;;;27.85;17.08;;;;;;;6.81;59.62;93190.31;5089220;28;20533;-50
2021/12/25 10:04:31;;;;;;;41.75;22.52;;;;;;;7.02;58.51;93193.13;5089282;28;20028;-53
2021/12/25 10:06:57;;;;;;;35.88;18.50;;;;;;;7.05;58.60;93173.59;5089356;28;20030;-50
2021/12/25 10:09:25;;;;;;;40.08;21.10;;;;;;;7.41;59.26;93174.50;5088901;28;20028;-53
2021/12/25 10:12:08;;;;;;;40.33;21.13;;;;;;;7.43;57.92;93143.75;5091980;28;20512;-50
2021/12/25 10:14:37;;;;;;;37.30;22.77;;;;;;;7.71;57.16;93167.81;5107085;28;20039;-56
2021/12/25 10:17:11;;;;;;;;;;;;;;;7.42;57.79;93165.00;5110555;28;20080;-59
2021/12/25 10:19:36;;;;;;;59.55;40.83;;;;;;;7.49;57.37;93163.59;5105572;28;20366;-60
2021/12/25 10:22:05;;;;;;;54.72;34.03;;;;;;;7.64;57.81;93167.19;5110116;28;20031;-62
2021/12/25 10:24:36;;;;;;;50.72;33.30;;;;;;;7.63;56.56;93152.00;5105695;28;20540;-61
2021/12/25 10:27:14;;;;;;;54.15;37.17;;;;;;;7.61;57.24;93157.28;5110210;28;20511;-61
2021/12/25 10:29:41;;;;;;;68.40;43.03;;;;;;;7.62;56.82;93149.81;5106202;28;20061;-59
2021/12/25 10:32:17;;;;;;;60.20;37.05;;;;;;;7.68;57.43;93150.41;5109682;28;20166;-61
2021/12/25 10:34:43;;;;;;;42.05;28.25;;;;;;;7.49;56.99;93138.88;5105536;28;20408;-65
2021/12/25 10:37:11;;;;;;;40.92;25.30;;;;;;;7.57;56.88;93145.91;5108166;28;20030;-62
2021/12/25 10:39:37;;;;;;;60.88;36.63;;;;;;;7.59;57.19;93137.13;5091028;28;20297;-64
2021/12/25 10:42:14;;;;;;;56.38;36.83;;;;;;;7.79;57.38;93154.88;5088976;28;20027;-62
2021/12/25 10:44:47;;;;;;;62.80;42.65;;;;;;;7.52;57.51;93144.03;5087505;28;20027;-60
2021/12/25 10:47:13;;;;;;;73.63;49.42;;;;;;;7.84;57.56;93143.72;5090997;28;20032;-49
2021/12/25 10:49:43;;;;;;;61.70;40.83;;;;;;;7.96;57.02;93139.44;5087034;28;20032;-45
2021/12/25 10:52:20;;;;;;;57.08;36.40;;;;;;;8.21;56.62;93128.75;5087897;28;20055;-54
2021/12/25 10:54:53;;;;;;;66.53;46.10;;;;;;;8.43;55.91;93119.94;5085489;28;20592;-46
2021/12/25 10:57:34;;;;;;;72.05;46.88;;;;;;;8.63;55.12;93121.88;5087350;28;20062;-59
2021/12/25 11:00:03;;;;;;;63.08;42.83;;;;;;;8.86;54.16;93121.94;5087996;28;20570;-52
2021/12/25 11:02:38;;;;;;;60.47;43.17;;;;;;;8.93;54.25;93116.47;5088503;28;20077;-59
2021/12/25 11:05:27;;;;;;;59.63;40.45;;;;;;;8.42;55.18;93118.47;5088816;28;20078;-51
2021/12/25 11:08:04;;;;;;;58.47;38.50;;;;;;;8.25;55.56;93126.44;5089354;28;20028;-54
2021/12/25 11:10:30;;;;;;;59.70;40.60;;;;;;;8.37;55.85;93122.13;5089186;28;20032;-59
2021/12/25 11:12:59;;;;;;;64.45;44.08;;;;;;;8.27;56.18;93116.38;5088186;28;20046;-56
2021/12/25 11:15:30;;;;;;;68.90;42.70;;;;;;;8.49;56.22;93115.00;5087254;28;20118;-55
2021/12/25 11:18:05;;;;;;;62.95;39.90;;;;;;;8.55;56.01;93092.84;5088629;28;20020;-56
2021/12/25 11:20:38;;;;;;;59.75;41.30;;;;;;;8.62;55.72;93111.41;5080221;28;20035;-53
2021/12/25 11:23:06;;;;;;;55.05;37.63;;;;;;;8.86;56.02;93119.94;5083443;28;20032;-53
2021/12/25 11:25:34;;;;;;;64.20;43.30;;;;;;;8.94;54.72;93104.16;5087379;28;20416;-58
2021/12/25 11:28:01;;;;;;;47.38;30.85;;;;;;;8.97;54.18;93118.88;5087363;28;20666;-53
2021/12/25 11:30:31;;;;;;;80.80;55.03;;;;;;;9.07;54.60;93112.28;5087799;28;20024;-55
2021/12/25 11:32:57;;;;;;;70.88;46.72;;;;;;;9.20;53.82;93110.66;5066428;28;20348;-55
2021/12/25 11:35:23;;;;;;;55.38;36.72;;;;;;;9.23;53.25;93104.06;5072610;28;20109;-60
2021/12/25 11:37:50;;;;;;;55.38;38.15;;;;;;;9.11;54.08;93098.91;5084560;28;20402;-61
2021/12/25 11:40:18;;;;;;;51.03;34.78;;;;;;;9.05;53.67;93101.09;5087191;28;20028;-60
2021/12/25 11:42:49;;;;;;;40.17;28.10;;;;;;;9.05;54.00;93101.09;5085081;28;20031;-59
2021/12/25 11:45:18;;;;;;;46.45;28.85;;;;;;;8.92;53.99;93097.75;5086794;28;20429;-59
2021/12/25 11:47:43;;;;;;;;;;;;;;;8.56;53.79;93100.56;5087194;28;20036;-59
2021/12/25 11:50:14;;;;;;;73.05;45.33;;;;;;;8.65;54.12;93089.03;5087038;28;19912;-50
2021/12/25 11:52:49;;;;;;;66.50;44.25;;;;;;;8.70;54.19;93088.16;5087428;28;20085;-53
2021/12/25 11:55:31;;;;;;;71.43;49.30;;;;;;;8.86;54.48;93097.16;5070663;28;20106;-55
2021/12/25 11:58:05;;;;;;;79.68;53.50;;;;;;;8.47;55.22;93092.81;5086784;28;20066;-56
2021/12/25 12:00:43;;;;;;;154.98;84.25;;;;;;;8.14;56.27;93091.69;5070542;28;20031;-58
2021/12/25 12:03:09;;;;;;;88.00;54.90;;;;;;;7.92;56.47;93048.34;5087781;28;20035;-58
2021/12/25 12:05:37;;;;;;;56.13;36.58;;;;;;;8.25;57.28;93079.69;5089941;28;20050;-47
2021/12/25 12:08:03;;;;;;;60.28;36.88;;;;;;;7.97;58.47;93079.69;5103547;28;20093;-51
2021/12/25 12:10:43;;;;;;;59.67;38.00;;;;;;;8.56;58.01;93073.03;5099057;28;20027;-51
2021/12/25 12:13:28;;;;;;;41.72;26.90;;;;;;;9.00;57.48;93057.94;5097578;28;20027;-49
2021/12/25 12:15:57;;;;;;;42.45;27.45;;;;;;;10.13;56.22;93065.50;5096819;28;20046;-48
2021/12/25 12:18:31;;;;;;;49.42;34.10;;;;;;;10.95;53.87;93066.47;5098542;28;20030;-50
2021/12/25 12:21:09;;;;;;;60.58;34.17;;;;;;;11.55;51.72;93061.84;5097598;28;20038;-57
2021/12/25 12:26:11;;;;;;;54.75;32.00;;;;;;;11.35;50.71;93016.66;5098134;28;20131;-55
2021/12/25 12:28:47;;;;;;;35.70;23.42;;;;;;;11.60;49.51;93055.38;5088064;28;20039;-57
2021/12/25 12:31:37;;;;;;;28.13;18.80;;;;;;;12.56;47.68;93059.84;5088876;28;20107;-56
2021/12/25 12:34:31;;;;;;;46.28;31.67;;;;;;;12.79;45.57;93054.75;5088989;28;20061;-60
2021/12/25 12:37:18;;;;;;;29.10;19.25;;;;;;;12.31;45.68;93053.63;5088159;28;20024;-55
2021/12/25 12:40:07;;;;;;;26.80;18.92;;;;;;;11.95;45.79;93054.91;5087072;28;20027;-49
2021/12/25 12:42:42;;;;;;;28.15;21.23;;;;;;;11.17;47.11;93067.66;5085950;28;20102;-58
2021/12/25 12:45:48;;;;;;;46.47;28.80;;;;;;;10.20;48.89;93064.72;5087410;28;20556;-48